<?xml version="1.0" encoding="UTF-8" standalone="no" ?>
<gpx xmlns="http://www.topografix.com/GPX/1/1" xmlns:xsi="http://www.w3.org/2001/XMLSchema-instance" xsi:schemaLocation="http://www.topografix.com/GPX/1/1 http://www.topografix.com/GPX/1/1/gpx.xsd" version="1.1" creator="VisuGPX - https://www.visugpx.com">
  <metadata>
    <name>tZkBBXQy19</name>
    <desc><![CDATA[

]]></desc>
  </metadata>
  <trk>
    <name><![CDATA[tZkBBXQy19_1]]></name>
    <trkseg>
      <trkpt lat="46.11377" lon="4.56976">
        <ele>377</ele>
        <time>2020-10-19T11:24:18Z</time>
      </trkpt>
      <trkpt lat="46.11377" lon="4.56976">
        <ele>377</ele>
        <time>2020-10-19T11:24:18Z</time>
      </trkpt>
      <trkpt lat="46.11377" lon="4.56976">
        <ele>376.8</ele>
        <time>2020-10-19T11:24:19Z</time>
      </trkpt>
      <trkpt lat="46.11374" lon="4.56978">
        <ele>376.6</ele>
        <time>2020-10-19T11:24:20Z</time>
      </trkpt>
      <trkpt lat="46.11374" lon="4.56978">
        <ele>376.6</ele>
        <time>2020-10-19T11:24:21Z</time>
      </trkpt>
      <trkpt lat="46.11373" lon="4.5698">
        <ele>376.4</ele>
        <time>2020-10-19T11:24:22Z</time>
      </trkpt>
      <trkpt lat="46.11373" lon="4.5698">
        <ele>376.2</ele>
        <time>2020-10-19T11:24:23Z</time>
      </trkpt>
      <trkpt lat="46.11372" lon="4.56983">
        <ele>376.2</ele>
        <time>2020-10-19T11:24:24Z</time>
      </trkpt>
      <trkpt lat="46.11372" lon="4.56983">
        <ele>376.2</ele>
        <time>2020-10-19T11:24:25Z</time>
      </trkpt>
      <trkpt lat="46.11371" lon="4.56986">
        <ele>376</ele>
        <time>2020-10-19T11:24:26Z</time>
      </trkpt>
      <trkpt lat="46.11371" lon="4.56986">
        <ele>376</ele>
        <time>2020-10-19T11:24:27Z</time>
      </trkpt>
      <trkpt lat="46.1137" lon="4.56988">
        <ele>375.6</ele>
        <time>2020-10-19T11:24:28Z</time>
      </trkpt>
      <trkpt lat="46.1137" lon="4.56988">
        <ele>375.6</ele>
        <time>2020-10-19T11:24:29Z</time>
      </trkpt>
      <trkpt lat="46.11367" lon="4.56991">
        <ele>375.4</ele>
        <time>2020-10-19T11:24:30Z</time>
      </trkpt>
      <trkpt lat="46.11367" lon="4.56991">
        <ele>375.6</ele>
        <time>2020-10-19T11:24:31Z</time>
      </trkpt>
      <trkpt lat="46.11365" lon="4.56993">
        <ele>375.4</ele>
        <time>2020-10-19T11:24:32Z</time>
      </trkpt>
      <trkpt lat="46.11365" lon="4.56993">
        <ele>375.6</ele>
        <time>2020-10-19T11:24:33Z</time>
      </trkpt>
      <trkpt lat="46.11362" lon="4.56995">
        <ele>375.2</ele>
        <time>2020-10-19T11:24:34Z</time>
      </trkpt>
      <trkpt lat="46.11362" lon="4.56995">
        <ele>375.2</ele>
        <time>2020-10-19T11:24:35Z</time>
      </trkpt>
      <trkpt lat="46.11359" lon="4.56997">
        <ele>375</ele>
        <time>2020-10-19T11:24:36Z</time>
      </trkpt>
      <trkpt lat="46.11359" lon="4.56997">
        <ele>375</ele>
        <time>2020-10-19T11:24:37Z</time>
      </trkpt>
      <trkpt lat="46.11357" lon="4.56999">
        <ele>375</ele>
        <time>2020-10-19T11:24:38Z</time>
      </trkpt>
      <trkpt lat="46.11357" lon="4.56999">
        <ele>374.8</ele>
        <time>2020-10-19T11:24:39Z</time>
      </trkpt>
      <trkpt lat="46.11355" lon="4.57">
        <ele>375</ele>
        <time>2020-10-19T11:24:40Z</time>
      </trkpt>
      <trkpt lat="46.11355" lon="4.57">
        <ele>375</ele>
        <time>2020-10-19T11:24:41Z</time>
      </trkpt>
      <trkpt lat="46.11352" lon="4.56999">
        <ele>375</ele>
        <time>2020-10-19T11:24:42Z</time>
      </trkpt>
      <trkpt lat="46.11352" lon="4.56999">
        <ele>374.8</ele>
        <time>2020-10-19T11:24:43Z</time>
      </trkpt>
      <trkpt lat="46.1135" lon="4.56996">
        <ele>374.6</ele>
        <time>2020-10-19T11:24:44Z</time>
      </trkpt>
      <trkpt lat="46.1135" lon="4.56996">
        <ele>374.2</ele>
        <time>2020-10-19T11:24:45Z</time>
      </trkpt>
      <trkpt lat="46.1135" lon="4.56996">
        <ele>374.2</ele>
        <time>2020-10-19T11:24:46Z</time>
      </trkpt>
      <trkpt lat="46.1135" lon="4.56996">
        <ele>374</ele>
        <time>2020-10-19T11:24:47Z</time>
      </trkpt>
      <trkpt lat="46.1135" lon="4.56996">
        <ele>374</ele>
        <time>2020-10-19T11:24:48Z</time>
      </trkpt>
      <trkpt lat="46.1135" lon="4.56996">
        <ele>374</ele>
        <time>2020-10-19T11:24:49Z</time>
      </trkpt>
      <trkpt lat="46.11349" lon="4.56993">
        <ele>374.2</ele>
        <time>2020-10-19T11:24:50Z</time>
      </trkpt>
      <trkpt lat="46.11349" lon="4.56993">
        <ele>374.2</ele>
        <time>2020-10-19T11:24:51Z</time>
      </trkpt>
      <trkpt lat="46.11348" lon="4.56989">
        <ele>374</ele>
        <time>2020-10-19T11:24:52Z</time>
      </trkpt>
      <trkpt lat="46.11347" lon="4.56987">
        <ele>374</ele>
        <time>2020-10-19T11:24:53Z</time>
      </trkpt>
      <trkpt lat="46.11346" lon="4.56984">
        <ele>373.8</ele>
        <time>2020-10-19T11:24:54Z</time>
      </trkpt>
      <trkpt lat="46.11346" lon="4.56984">
        <ele>374</ele>
        <time>2020-10-19T11:24:55Z</time>
      </trkpt>
      <trkpt lat="46.11343" lon="4.56981">
        <ele>374</ele>
        <time>2020-10-19T11:24:56Z</time>
      </trkpt>
      <trkpt lat="46.11343" lon="4.56981">
        <ele>373.8</ele>
        <time>2020-10-19T11:24:57Z</time>
      </trkpt>
      <trkpt lat="46.11341" lon="4.56977">
        <ele>373.8</ele>
        <time>2020-10-19T11:24:58Z</time>
      </trkpt>
      <trkpt lat="46.11341" lon="4.56977">
        <ele>374</ele>
        <time>2020-10-19T11:24:59Z</time>
      </trkpt>
      <trkpt lat="46.11338" lon="4.56974">
        <ele>373.8</ele>
        <time>2020-10-19T11:25:00Z</time>
      </trkpt>
      <trkpt lat="46.11338" lon="4.56974">
        <ele>373.8</ele>
        <time>2020-10-19T11:25:01Z</time>
      </trkpt>
      <trkpt lat="46.11337" lon="4.5697">
        <ele>373.8</ele>
        <time>2020-10-19T11:25:02Z</time>
      </trkpt>
    </trkseg>
  </trk>
</gpx>